sensor_id;sensor_type;location;lat;lon;timestamp;P1;durP1;ratioP1;P2;durP2;ratioP2
50393;SDS011;36308;46.312;25.288;2023-09-18T00:02:24;7.32;;;5.82;;
50393;SDS011;36308;46.312;25.288;2023-09-18T00:04:50;11.02;;;6.68;;
50393;SDS011;36308;46.312;25.288;2023-09-18T00:07:16;8.48;;;6.35;;
50393;SDS011;36308;46.312;25.288;2023-09-18T00:09:41;8.05;;;6.03;;
50393;SDS011;36308;46.312;25.288;2023-09-18T00:12:07;8.18;;;6.10;;
50393;SDS011;36308;46.312;25.288;2023-09-18T00:14:32;9.63;;;6.32;;
50393;SDS011;36308;46.312;25.288;2023-09-18T00:16:58;8.82;;;6.28;;
50393;SDS011;36308;46.312;25.288;2023-09-18T00:19:23;8.15;;;5.93;;
50393;SDS011;36308;46.312;25.288;2023-09-18T00:21:49;7.13;;;5.68;;
50393;SDS011;36308;46.312;25.288;2023-09-18T00:24:17;8.73;;;6.07;;
50393;SDS011;36308;46.312;25.288;2023-09-18T00:26:42;8.65;;;5.95;;
50393;SDS011;36308;46.312;25.288;2023-09-18T00:29:07;8.90;;;6.30;;
50393;SDS011;36308;46.312;25.288;2023-09-18T00:31:33;8.32;;;5.72;;
50393;SDS011;36308;46.312;25.288;2023-09-18T00:33:58;9.27;;;6.38;;
50393;SDS011;36308;46.312;25.288;2023-09-18T00:36:24;10.80;;;6.93;;
50393;SDS011;36308;46.312;25.288;2023-09-18T00:38:49;9.50;;;6.15;;
50393;SDS011;36308;46.312;25.288;2023-09-18T00:41:15;7.72;;;5.82;;
50393;SDS011;36308;46.312;25.288;2023-09-18T00:43:40;10.02;;;6.80;;
50393;SDS011;36308;46.312;25.288;2023-09-18T00:46:06;9.52;;;6.68;;
50393;SDS011;36308;46.312;25.288;2023-09-18T00:48:33;9.88;;;6.38;;
50393;SDS011;36308;46.312;25.288;2023-09-18T00:50:58;9.32;;;6.20;;
50393;SDS011;36308;46.312;25.288;2023-09-18T00:53:24;9.23;;;6.57;;
50393;SDS011;36308;46.312;25.288;2023-09-18T00:55:52;11.43;;;6.30;;
50393;SDS011;36308;46.312;25.288;2023-09-18T00:58:19;9.48;;;6.97;;
50393;SDS011;36308;46.312;25.288;2023-09-18T01:00:45;8.32;;;6.22;;
50393;SDS011;36308;46.312;25.288;2023-09-18T01:03:10;9.07;;;6.40;;
50393;SDS011;36308;46.312;25.288;2023-09-18T01:05:36;8.55;;;6.70;;
50393;SDS011;36308;46.312;25.288;2023-09-18T01:08:02;9.40;;;6.75;;
50393;SDS011;36308;46.312;25.288;2023-09-18T01:10:31;10.38;;;6.30;;
50393;SDS011;36308;46.312;25.288;2023-09-18T01:13:04;9.38;;;6.20;;
50393;SDS011;36308;46.312;25.288;2023-09-18T01:15:44;8.65;;;5.82;;
50393;SDS011;36308;46.312;25.288;2023-09-18T01:18:17;9.45;;;6.88;;
50393;SDS011;36308;46.312;25.288;2023-09-18T01:20:43;7.95;;;6.05;;
50393;SDS011;36308;46.312;25.288;2023-09-18T01:23:09;9.48;;;6.25;;
50393;SDS011;36308;46.312;25.288;2023-09-18T01:25:36;8.25;;;5.70;;
50393;SDS011;36308;46.312;25.288;2023-09-18T01:28:02;11.10;;;6.95;;
50393;SDS011;36308;46.312;25.288;2023-09-18T01:30:29;10.63;;;6.95;;
50393;SDS011;36308;46.312;25.288;2023-09-18T01:32:55;10.38;;;6.22;;
50393;SDS011;36308;46.312;25.288;2023-09-18T01:35:23;14.32;;;6.68;;
50393;SDS011;36308;46.312;25.288;2023-09-18T01:37:55;11.35;;;6.22;;
50393;SDS011;36308;46.312;25.288;2023-09-18T01:40:22;9.80;;;6.15;;
50393;SDS011;36308;46.312;25.288;2023-09-18T01:42:49;9.82;;;6.65;;
50393;SDS011;36308;46.312;25.288;2023-09-18T01:45:15;8.55;;;6.50;;
50393;SDS011;36308;46.312;25.288;2023-09-18T01:47:40;11.05;;;6.95;;
50393;SDS011;36308;46.312;25.288;2023-09-18T01:50:06;9.65;;;6.63;;
50393;SDS011;36308;46.312;25.288;2023-09-18T01:52:32;9.55;;;6.63;;
50393;SDS011;36308;46.312;25.288;2023-09-18T01:54:59;8.57;;;6.07;;
50393;SDS011;36308;46.312;25.288;2023-09-18T01:57:25;10.27;;;6.35;;
50393;SDS011;36308;46.312;25.288;2023-09-18T01:59:50;8.88;;;6.38;;
50393;SDS011;36308;46.312;25.288;2023-09-18T02:02:16;9.32;;;6.25;;
50393;SDS011;36308;46.312;25.288;2023-09-18T02:04:41;9.20;;;5.95;;
50393;SDS011;36308;46.312;25.288;2023-09-18T02:07:08;8.85;;;6.05;;
50393;SDS011;36308;46.312;25.288;2023-09-18T02:09:34;7.22;;;5.72;;
50393;SDS011;36308;46.312;25.288;2023-09-18T02:12:00;10.15;;;6.38;;
50393;SDS011;36308;46.312;25.288;2023-09-18T02:14:25;7.90;;;6.00;;
50393;SDS011;36308;46.312;25.288;2023-09-18T02:16:50;9.82;;;6.47;;
50393;SDS011;36308;46.312;25.288;2023-09-18T02:19:16;7.65;;;5.88;;
50393;SDS011;36308;46.312;25.288;2023-09-18T02:21:43;7.47;;;5.38;;
50393;SDS011;36308;46.312;25.288;2023-09-18T02:24:09;8.88;;;6.55;;
50393;SDS011;36308;46.312;25.288;2023-09-18T02:26:34;9.27;;;6.07;;
50393;SDS011;36308;46.312;25.288;2023-09-18T02:29:01;9.02;;;6.15;;
50393;SDS011;36308;46.312;25.288;2023-09-18T02:31:27;9.75;;;5.75;;
50393;SDS011;36308;46.312;25.288;2023-09-18T02:33:53;8.75;;;6.22;;
50393;SDS011;36308;46.312;25.288;2023-09-18T02:36:18;9.13;;;6.20;;
50393;SDS011;36308;46.312;25.288;2023-09-18T02:38:44;7.97;;;6.18;;
50393;SDS011;36308;46.312;25.288;2023-09-18T02:41:09;8.82;;;6.28;;
50393;SDS011;36308;46.312;25.288;2023-09-18T02:43:35;10.68;;;6.20;;
50393;SDS011;36308;46.312;25.288;2023-09-18T02:46:02;9.63;;;6.47;;
50393;SDS011;36308;46.312;25.288;2023-09-18T02:48:29;7.57;;;5.85;;
50393;SDS011;36308;46.312;25.288;2023-09-18T02:50:54;8.73;;;5.80;;
50393;SDS011;36308;46.312;25.288;2023-09-18T02:53:20;8.18;;;5.72;;
50393;SDS011;36308;46.312;25.288;2023-09-18T02:55:49;8.55;;;5.80;;
50393;SDS011;36308;46.312;25.288;2023-09-18T02:58:15;7.57;;;5.53;;
50393;SDS011;36308;46.312;25.288;2023-09-18T03:00:41;8.50;;;6.15;;
50393;SDS011;36308;46.312;25.288;2023-09-18T03:03:10;9.02;;;5.97;;
50393;SDS011;36308;46.312;25.288;2023-09-18T03:05:36;9.32;;;5.90;;
50393;SDS011;36308;46.312;25.288;2023-09-18T03:08:03;11.10;;;7.38;;
50393;SDS011;36308;46.312;25.288;2023-09-18T03:10:32;10.13;;;7.75;;
50393;SDS011;36308;46.312;25.288;2023-09-18T03:15:28;8.32;;;6.30;;
50393;SDS011;36308;46.312;25.288;2023-09-18T03:17:54;10.00;;;5.85;;
50393;SDS011;36308;46.312;25.288;2023-09-18T03:20:23;26.80;;;10.73;;
50393;SDS011;36308;46.312;25.288;2023-09-18T03:22:53;13.27;;;8.00;;
50393;SDS011;36308;46.312;25.288;2023-09-18T03:25:22;11.40;;;7.70;;
50393;SDS011;36308;46.312;25.288;2023-09-18T03:27:50;12.30;;;6.82;;
50393;SDS011;36308;46.312;25.288;2023-09-18T03:30:17;8.90;;;6.25;;
50393;SDS011;36308;46.312;25.288;2023-09-18T03:32:43;11.77;;;6.55;;
50393;SDS011;36308;46.312;25.288;2023-09-18T03:35:10;8.73;;;6.35;;
50393;SDS011;36308;46.312;25.288;2023-09-18T03:37:43;7.55;;;6.13;;
50393;SDS011;36308;46.312;25.288;2023-09-18T03:40:09;9.15;;;6.47;;
50393;SDS011;36308;46.312;25.288;2023-09-18T03:42:35;9.02;;;5.97;;
50393;SDS011;36308;46.312;25.288;2023-09-18T03:45:00;9.07;;;7.05;;
50393;SDS011;36308;46.312;25.288;2023-09-18T03:47:26;11.05;;;6.70;;
50393;SDS011;36308;46.312;25.288;2023-09-18T03:49:51;13.77;;;11.90;;
50393;SDS011;36308;46.312;25.288;2023-09-18T03:52:17;9.40;;;7.68;;
50393;SDS011;36308;46.312;25.288;2023-09-18T03:54:42;9.75;;;7.45;;
50393;SDS011;36308;46.312;25.288;2023-09-18T03:57:08;12.77;;;8.13;;
50393;SDS011;36308;46.312;25.288;2023-09-18T03:59:33;10.50;;;8.20;;
50393;SDS011;36308;46.312;25.288;2023-09-18T04:01:58;12.75;;;9.23;;
50393;SDS011;36308;46.312;25.288;2023-09-18T04:04:24;11.00;;;8.20;;
50393;SDS011;36308;46.312;25.288;2023-09-18T04:06:50;17.77;;;7.53;;
50393;SDS011;36308;46.312;25.288;2023-09-18T04:09:15;9.80;;;8.60;;
50393;SDS011;36308;46.312;25.288;2023-09-18T04:11:41;14.23;;;10.35;;
50393;SDS011;36308;46.312;25.288;2023-09-18T04:14:06;12.63;;;10.02;;
50393;SDS011;36308;46.312;25.288;2023-09-18T04:16:32;11.95;;;8.68;;
50393;SDS011;36308;46.312;25.288;2023-09-18T04:19:00;14.30;;;10.90;;
50393;SDS011;36308;46.312;25.288;2023-09-18T04:21:26;10.15;;;7.47;;
50393;SDS011;36308;46.312;25.288;2023-09-18T04:23:52;12.02;;;8.57;;
50393;SDS011;36308;46.312;25.288;2023-09-18T04:26:22;10.90;;;7.65;;
50393;SDS011;36308;46.312;25.288;2023-09-18T04:28:48;10.43;;;7.00;;
50393;SDS011;36308;46.312;25.288;2023-09-18T04:31:14;10.35;;;7.10;;
50393;SDS011;36308;46.312;25.288;2023-09-18T04:33:39;12.02;;;8.10;;
50393;SDS011;36308;46.312;25.288;2023-09-18T04:36:05;17.38;;;12.13;;
50393;SDS011;36308;46.312;25.288;2023-09-18T04:38:31;28.27;;;19.60;;
50393;SDS011;36308;46.312;25.288;2023-09-18T04:40:59;13.75;;;9.65;;
50393;SDS011;36308;46.312;25.288;2023-09-18T04:43:26;11.18;;;8.23;;
50393;SDS011;36308;46.312;25.288;2023-09-18T04:45:51;11.70;;;8.10;;
50393;SDS011;36308;46.312;25.288;2023-09-18T04:48:17;16.88;;;9.13;;
50393;SDS011;36308;46.312;25.288;2023-09-18T04:50:43;14.52;;;8.68;;
50393;SDS011;36308;46.312;25.288;2023-09-18T04:53:08;12.10;;;8.02;;
50393;SDS011;36308;46.312;25.288;2023-09-18T04:55:34;13.93;;;8.38;;
50393;SDS011;36308;46.312;25.288;2023-09-18T04:58:00;11.00;;;8.65;;
50393;SDS011;36308;46.312;25.288;2023-09-18T05:00:25;10.68;;;8.13;;
50393;SDS011;36308;46.312;25.288;2023-09-18T05:02:52;12.30;;;8.52;;
50393;SDS011;36308;46.312;25.288;2023-09-18T05:05:18;11.73;;;7.75;;
50393;SDS011;36308;46.312;25.288;2023-09-18T05:07:43;12.05;;;7.25;;
50393;SDS011;36308;46.312;25.288;2023-09-18T05:10:09;12.93;;;7.82;;
50393;SDS011;36308;46.312;25.288;2023-09-18T05:12:35;15.48;;;9.20;;
50393;SDS011;36308;46.312;25.288;2023-09-18T05:15:03;16.60;;;10.55;;
50393;SDS011;36308;46.312;25.288;2023-09-18T05:17:42;15.00;;;10.32;;
50393;SDS011;36308;46.312;25.288;2023-09-18T05:20:12;16.30;;;10.23;;
50393;SDS011;36308;46.312;25.288;2023-09-18T05:22:39;13.98;;;9.70;;
50393;SDS011;36308;46.312;25.288;2023-09-18T05:25:05;12.82;;;9.40;;
50393;SDS011;36308;46.312;25.288;2023-09-18T05:27:32;13.00;;;9.25;;
50393;SDS011;36308;46.312;25.288;2023-09-18T05:29:57;13.25;;;9.25;;
50393;SDS011;36308;46.312;25.288;2023-09-18T05:32:23;12.90;;;8.55;;
50393;SDS011;36308;46.312;25.288;2023-09-18T05:34:48;12.32;;;9.45;;
50393;SDS011;36308;46.312;25.288;2023-09-18T05:37:14;14.30;;;9.07;;
50393;SDS011;36308;46.312;25.288;2023-09-18T05:39:40;15.88;;;8.40;;
50393;SDS011;36308;46.312;25.288;2023-09-18T05:42:06;13.88;;;8.48;;
50393;SDS011;36308;46.312;25.288;2023-09-18T05:44:31;11.68;;;7.97;;
50393;SDS011;36308;46.312;25.288;2023-09-18T05:46:58;21.65;;;9.20;;
50393;SDS011;36308;46.312;25.288;2023-09-18T05:49:23;11.00;;;8.13;;
50393;SDS011;36308;46.312;25.288;2023-09-18T05:51:49;15.52;;;9.07;;
50393;SDS011;36308;46.312;25.288;2023-09-18T05:54:14;13.50;;;9.65;;
50393;SDS011;36308;46.312;25.288;2023-09-18T05:56:40;19.85;;;9.57;;
50393;SDS011;36308;46.312;25.288;2023-09-18T05:59:05;16.38;;;10.07;;
50393;SDS011;36308;46.312;25.288;2023-09-18T06:01:31;18.55;;;9.82;;
50393;SDS011;36308;46.312;25.288;2023-09-18T06:03:58;12.38;;;8.77;;
50393;SDS011;36308;46.312;25.288;2023-09-18T06:06:23;18.30;;;9.25;;
50393;SDS011;36308;46.312;25.288;2023-09-18T06:08:50;18.35;;;12.40;;
50393;SDS011;36308;46.312;25.288;2023-09-18T06:11:18;13.95;;;8.43;;
50393;SDS011;36308;46.312;25.288;2023-09-18T06:13:44;11.07;;;7.80;;
50393;SDS011;36308;46.312;25.288;2023-09-18T06:16:11;17.83;;;9.00;;
50393;SDS011;36308;46.312;25.288;2023-09-18T06:18:36;23.60;;;8.57;;
50393;SDS011;36308;46.312;25.288;2023-09-18T06:21:03;21.30;;;8.80;;
50393;SDS011;36308;46.312;25.288;2023-09-18T06:23:31;11.35;;;7.78;;
50393;SDS011;36308;46.312;25.288;2023-09-18T06:25:57;12.20;;;7.85;;
50393;SDS011;36308;46.312;25.288;2023-09-18T06:28:24;13.52;;;8.30;;
50393;SDS011;36308;46.312;25.288;2023-09-18T06:30:50;42.78;;;12.02;;
50393;SDS011;36308;46.312;25.288;2023-09-18T06:33:16;24.33;;;8.68;;
50393;SDS011;36308;46.312;25.288;2023-09-18T06:35:42;14.95;;;9.50;;
50393;SDS011;36308;46.312;25.288;2023-09-18T06:38:07;15.25;;;9.43;;
50393;SDS011;36308;46.312;25.288;2023-09-18T06:40:35;12.35;;;8.38;;
50393;SDS011;36308;46.312;25.288;2023-09-18T06:43:01;17.77;;;9.27;;
50393;SDS011;36308;46.312;25.288;2023-09-18T06:45:27;13.07;;;8.30;;
50393;SDS011;36308;46.312;25.288;2023-09-18T06:47:55;12.50;;;8.25;;
50393;SDS011;36308;46.312;25.288;2023-09-18T06:50:21;13.98;;;8.07;;
50393;SDS011;36308;46.312;25.288;2023-09-18T06:52:47;20.38;;;8.80;;
50393;SDS011;36308;46.312;25.288;2023-09-18T06:55:12;13.85;;;7.55;;
50393;SDS011;36308;46.312;25.288;2023-09-18T06:57:40;11.23;;;7.55;;
50393;SDS011;36308;46.312;25.288;2023-09-18T07:00:07;9.52;;;7.13;;
50393;SDS011;36308;46.312;25.288;2023-09-18T07:02:33;9.98;;;7.38;;
50393;SDS011;36308;46.312;25.288;2023-09-18T07:04:59;13.18;;;7.78;;
50393;SDS011;36308;46.312;25.288;2023-09-18T07:07:24;10.95;;;7.68;;
50393;SDS011;36308;46.312;25.288;2023-09-18T07:09:53;13.85;;;7.68;;
50393;SDS011;36308;46.312;25.288;2023-09-18T07:12:19;10.57;;;6.88;;
50393;SDS011;36308;46.312;25.288;2023-09-18T07:14:45;9.95;;;6.20;;
50393;SDS011;36308;46.312;25.288;2023-09-18T07:17:11;8.90;;;6.43;;
50393;SDS011;36308;46.312;25.288;2023-09-18T07:19:36;14.73;;;6.15;;
50393;SDS011;36308;46.312;25.288;2023-09-18T07:22:02;7.80;;;6.47;;
50393;SDS011;36308;46.312;25.288;2023-09-18T07:24:28;9.15;;;6.68;;
50393;SDS011;36308;46.312;25.288;2023-09-18T07:26:53;12.40;;;6.78;;
50393;SDS011;36308;46.312;25.288;2023-09-18T07:29:20;8.07;;;6.18;;
50393;SDS011;36308;46.312;25.288;2023-09-18T07:31:45;7.70;;;5.85;;
50393;SDS011;36308;46.312;25.288;2023-09-18T07:34:11;9.40;;;6.00;;
50393;SDS011;36308;46.312;25.288;2023-09-18T07:36:39;8.63;;;5.50;;
50393;SDS011;36308;46.312;25.288;2023-09-18T07:39:04;12.80;;;6.15;;
50393;SDS011;36308;46.312;25.288;2023-09-18T07:41:31;10.90;;;6.00;;
50393;SDS011;36308;46.312;25.288;2023-09-18T07:43:57;9.88;;;5.72;;
50393;SDS011;36308;46.312;25.288;2023-09-18T07:46:24;7.93;;;5.75;;
50393;SDS011;36308;46.312;25.288;2023-09-18T07:48:50;6.63;;;5.28;;
50393;SDS011;36308;46.312;25.288;2023-09-18T07:51:15;7.10;;;4.78;;
50393;SDS011;36308;46.312;25.288;2023-09-18T07:53:41;7.82;;;4.97;;
50393;SDS011;36308;46.312;25.288;2023-09-18T07:56:08;7.25;;;4.80;;
50393;SDS011;36308;46.312;25.288;2023-09-18T07:58:33;7.70;;;4.60;;
50393;SDS011;36308;46.312;25.288;2023-09-18T08:01:03;7.40;;;4.50;;
50393;SDS011;36308;46.312;25.288;2023-09-18T08:03:34;8.18;;;4.95;;
50393;SDS011;36308;46.312;25.288;2023-09-18T08:06:00;7.68;;;4.28;;
50393;SDS011;36308;46.312;25.288;2023-09-18T08:08:25;8.18;;;5.18;;
50393;SDS011;36308;46.312;25.288;2023-09-18T08:10:51;5.85;;;4.63;;
50393;SDS011;36308;46.312;25.288;2023-09-18T08:13:19;7.35;;;4.72;;
50393;SDS011;36308;46.312;25.288;2023-09-18T08:15:45;4.57;;;4.03;;
50393;SDS011;36308;46.312;25.288;2023-09-18T08:18:12;9.20;;;4.72;;
50393;SDS011;36308;46.312;25.288;2023-09-18T08:20:43;7.90;;;4.50;;
50393;SDS011;36308;46.312;25.288;2023-09-18T08:23:09;6.45;;;4.05;;
50393;SDS011;36308;46.312;25.288;2023-09-18T08:25:35;6.57;;;4.57;;
50393;SDS011;36308;46.312;25.288;2023-09-18T08:28:01;7.63;;;4.60;;
50393;SDS011;36308;46.312;25.288;2023-09-18T08:30:28;5.68;;;4.30;;
50393;SDS011;36308;46.312;25.288;2023-09-18T08:32:53;5.75;;;4.30;;
50393;SDS011;36308;46.312;25.288;2023-09-18T08:35:19;5.70;;;4.72;;
50393;SDS011;36308;46.312;25.288;2023-09-18T08:37:45;6.38;;;4.40;;
50393;SDS011;36308;46.312;25.288;2023-09-18T08:40:11;8.95;;;4.78;;
50393;SDS011;36308;46.312;25.288;2023-09-18T08:42:42;5.80;;;4.60;;
50393;SDS011;36308;46.312;25.288;2023-09-18T08:45:10;6.03;;;3.85;;
50393;SDS011;36308;46.312;25.288;2023-09-18T08:47:50;6.28;;;4.55;;
50393;SDS011;36308;46.312;25.288;2023-09-18T08:50:16;5.88;;;4.03;;
50393;SDS011;36308;46.312;25.288;2023-09-18T08:52:43;6.47;;;5.70;;
50393;SDS011;36308;46.312;25.288;2023-09-18T08:55:10;8.27;;;5.47;;
50393;SDS011;36308;46.312;25.288;2023-09-18T08:57:36;6.40;;;4.13;;
50393;SDS011;36308;46.312;25.288;2023-09-18T09:00:03;6.20;;;4.28;;
50393;SDS011;36308;46.312;25.288;2023-09-18T09:02:35;6.88;;;4.10;;
50393;SDS011;36308;46.312;25.288;2023-09-18T09:05:00;5.82;;;4.50;;
50393;SDS011;36308;46.312;25.288;2023-09-18T09:07:26;6.95;;;4.88;;
50393;SDS011;36308;46.312;25.288;2023-09-18T09:09:53;7.78;;;4.70;;
50393;SDS011;36308;46.312;25.288;2023-09-18T09:13:01;6.60;;;4.72;;
50393;SDS011;36308;46.312;25.288;2023-09-18T09:15:14;6.93;;;4.45;;
50393;SDS011;36308;46.312;25.288;2023-09-18T09:17:40;10.25;;;4.55;;
50393;SDS011;36308;46.312;25.288;2023-09-18T09:20:10;5.78;;;4.40;;
50393;SDS011;36308;46.312;25.288;2023-09-18T09:22:38;5.35;;;3.90;;
50393;SDS011;36308;46.312;25.288;2023-09-18T09:25:09;5.18;;;4.13;;
50393;SDS011;36308;46.312;25.288;2023-09-18T09:27:46;5.15;;;4.00;;
50393;SDS011;36308;46.312;25.288;2023-09-18T09:30:18;6.43;;;4.25;;
50393;SDS011;36308;46.312;25.288;2023-09-18T09:32:47;8.73;;;4.18;;
50393;SDS011;36308;46.312;25.288;2023-09-18T09:35:21;8.40;;;4.60;;
50393;SDS011;36308;46.312;25.288;2023-09-18T09:37:52;4.82;;;4.30;;
50393;SDS011;36308;46.312;25.288;2023-09-18T09:40:21;8.35;;;4.38;;
50393;SDS011;36308;46.312;25.288;2023-09-18T09:42:50;4.30;;;3.75;;
50393;SDS011;36308;46.312;25.288;2023-09-18T09:45:26;6.90;;;4.03;;
50393;SDS011;36308;46.312;25.288;2023-09-18T09:47:56;8.10;;;4.10;;
50393;SDS011;36308;46.312;25.288;2023-09-18T09:50:24;8.95;;;4.10;;
50393;SDS011;36308;46.312;25.288;2023-09-18T09:52:51;5.88;;;4.20;;
50393;SDS011;36308;46.312;25.288;2023-09-18T09:55:20;6.60;;;4.10;;
50393;SDS011;36308;46.312;25.288;2023-09-18T09:57:46;5.40;;;3.97;;
50393;SDS011;36308;46.312;25.288;2023-09-18T10:00:13;4.82;;;3.80;;
50393;SDS011;36308;46.312;25.288;2023-09-18T10:02:56;6.53;;;3.92;;
50393;SDS011;36308;46.312;25.288;2023-09-18T10:05:28;4.38;;;3.83;;
50393;SDS011;36308;46.312;25.288;2023-09-18T10:07:59;5.82;;;4.20;;
50393;SDS011;36308;46.312;25.288;2023-09-18T10:10:31;5.43;;;3.78;;
50393;SDS011;36308;46.312;25.288;2023-09-18T10:13:01;4.88;;;3.70;;
50393;SDS011;36308;46.312;25.288;2023-09-18T10:15:33;5.32;;;3.60;;
50393;SDS011;36308;46.312;25.288;2023-09-18T10:18:04;5.93;;;3.63;;
50393;SDS011;36308;46.312;25.288;2023-09-18T10:20:36;4.55;;;3.90;;
50393;SDS011;36308;46.312;25.288;2023-09-18T10:23:07;4.57;;;3.60;;
50393;SDS011;36308;46.312;25.288;2023-09-18T10:25:49;5.50;;;3.63;;
50393;SDS011;36308;46.312;25.288;2023-09-18T10:28:20;4.68;;;3.70;;
50393;SDS011;36308;46.312;25.288;2023-09-18T10:30:46;4.78;;;3.70;;
50393;SDS011;36308;46.312;25.288;2023-09-18T10:33:13;4.35;;;3.72;;
50393;SDS011;36308;46.312;25.288;2023-09-18T10:35:38;7.50;;;4.25;;
50393;SDS011;36308;46.312;25.288;2023-09-18T10:38:06;7.25;;;3.47;;
50393;SDS011;36308;46.312;25.288;2023-09-18T10:40:32;8.48;;;3.55;;
50393;SDS011;36308;46.312;25.288;2023-09-18T10:43:02;5.78;;;3.75;;
50393;SDS011;36308;46.312;25.288;2023-09-18T10:45:29;4.20;;;2.95;;
50393;SDS011;36308;46.312;25.288;2023-09-18T10:47:55;5.40;;;3.35;;
50393;SDS011;36308;46.312;25.288;2023-09-18T10:50:23;5.78;;;3.50;;
50393;SDS011;36308;46.312;25.288;2023-09-18T10:52:50;4.63;;;3.40;;
50393;SDS011;36308;46.312;25.288;2023-09-18T10:55:16;4.63;;;3.80;;
50393;SDS011;36308;46.312;25.288;2023-09-18T10:57:54;4.75;;;3.38;;
50393;SDS011;36308;46.312;25.288;2023-09-18T11:00:22;6.15;;;3.50;;
50393;SDS011;36308;46.312;25.288;2023-09-18T11:02:53;6.22;;;3.30;;
50393;SDS011;36308;46.312;25.288;2023-09-18T11:05:35;5.88;;;3.40;;
50393;SDS011;36308;46.312;25.288;2023-09-18T11:11:10;5.38;;;3.30;;
50393;SDS011;36308;46.312;25.288;2023-09-18T11:18:51;4.53;;;3.00;;
50393;SDS011;36308;46.312;25.288;2023-09-18T11:21:19;5.05;;;3.28;;
50393;SDS011;36308;46.312;25.288;2023-09-18T11:24:05;4.93;;;3.20;;
50393;SDS011;36308;46.312;25.288;2023-09-18T11:26:46;4.25;;;3.03;;
50393;SDS011;36308;46.312;25.288;2023-09-18T11:29:14;5.55;;;3.13;;
50393;SDS011;36308;46.312;25.288;2023-09-18T11:31:45;3.42;;;2.85;;
50393;SDS011;36308;46.312;25.288;2023-09-18T11:34:24;6.35;;;3.15;;
50393;SDS011;36308;46.312;25.288;2023-09-18T11:36:56;6.60;;;2.88;;
50393;SDS011;36308;46.312;25.288;2023-09-18T11:39:39;3.00;;;2.65;;
50393;SDS011;36308;46.312;25.288;2023-09-18T11:42:21;4.03;;;3.08;;
50393;SDS011;36308;46.312;25.288;2023-09-18T11:44:47;3.83;;;3.13;;
50393;SDS011;36308;46.312;25.288;2023-09-18T11:47:18;7.07;;;3.40;;
50393;SDS011;36308;46.312;25.288;2023-09-18T11:52:21;4.32;;;2.90;;
50393;SDS011;36308;46.312;25.288;2023-09-18T11:54:47;3.13;;;2.80;;
50393;SDS011;36308;46.312;25.288;2023-09-18T11:57:13;4.28;;;2.85;;
50393;SDS011;36308;46.312;25.288;2023-09-18T11:59:40;3.65;;;3.00;;
50393;SDS011;36308;46.312;25.288;2023-09-18T12:02:08;3.10;;;2.70;;
50393;SDS011;36308;46.312;25.288;2023-09-18T12:04:35;3.70;;;3.05;;
50393;SDS011;36308;46.312;25.288;2023-09-18T12:07:03;5.93;;;2.70;;
50393;SDS011;36308;46.312;25.288;2023-09-18T12:09:30;5.63;;;2.50;;
50393;SDS011;36308;46.312;25.288;2023-09-18T12:11:57;3.30;;;2.58;;
50393;SDS011;36308;46.312;25.288;2023-09-18T12:14:31;5.03;;;2.80;;
50393;SDS011;36308;46.312;25.288;2023-09-18T12:17:01;4.40;;;2.60;;
50393;SDS011;36308;46.312;25.288;2023-09-18T12:19:30;5.40;;;2.53;;
50393;SDS011;36308;46.312;25.288;2023-09-18T12:21:56;2.88;;;2.20;;
50393;SDS011;36308;46.312;25.288;2023-09-18T12:24:22;3.90;;;2.60;;
50393;SDS011;36308;46.312;25.288;2023-09-18T12:26:51;3.30;;;2.30;;
50393;SDS011;36308;46.312;25.288;2023-09-18T12:29:17;3.47;;;2.30;;
50393;SDS011;36308;46.312;25.288;2023-09-18T12:31:46;5.15;;;2.72;;
50393;SDS011;36308;46.312;25.288;2023-09-18T12:34:22;3.92;;;2.80;;
50393;SDS011;36308;46.312;25.288;2023-09-18T12:36:48;4.03;;;2.53;;
50393;SDS011;36308;46.312;25.288;2023-09-18T12:39:15;3.60;;;2.63;;
50393;SDS011;36308;46.312;25.288;2023-09-18T12:41:45;3.47;;;2.72;;
50393;SDS011;36308;46.312;25.288;2023-09-18T12:44:12;2.83;;;2.20;;
50393;SDS011;36308;46.312;25.288;2023-09-18T12:46:39;3.40;;;2.20;;
50393;SDS011;36308;46.312;25.288;2023-09-18T12:49:21;4.32;;;2.53;;
50393;SDS011;36308;46.312;25.288;2023-09-18T12:52:08;5.97;;;2.75;;
50393;SDS011;36308;46.312;25.288;2023-09-18T12:54:37;4.50;;;2.63;;
50393;SDS011;36308;46.312;25.288;2023-09-18T12:57:06;4.13;;;2.63;;
50393;SDS011;36308;46.312;25.288;2023-09-18T12:59:34;3.10;;;2.30;;
50393;SDS011;36308;46.312;25.288;2023-09-18T13:02:04;3.50;;;2.60;;
50393;SDS011;36308;46.312;25.288;2023-09-18T13:04:33;3.50;;;2.60;;
50393;SDS011;36308;46.312;25.288;2023-09-18T13:07:11;4.57;;;2.88;;
50393;SDS011;36308;46.312;25.288;2023-09-18T13:09:38;2.83;;;2.53;;
50393;SDS011;36308;46.312;25.288;2023-09-18T13:12:05;4.90;;;2.97;;
50393;SDS011;36308;46.312;25.288;2023-09-18T13:17:22;2.72;;;2.40;;
50393;SDS011;36308;46.312;25.288;2023-09-18T13:19:49;4.78;;;2.55;;
50393;SDS011;36308;46.312;25.288;2023-09-18T13:22:22;4.82;;;2.45;;
50393;SDS011;36308;46.312;25.288;2023-09-18T13:24:55;4.75;;;2.80;;
50393;SDS011;36308;46.312;25.288;2023-09-18T13:27:21;5.38;;;2.70;;
50393;SDS011;36308;46.312;25.288;2023-09-18T13:29:48;3.88;;;2.53;;
50393;SDS011;36308;46.312;25.288;2023-09-18T13:32:14;3.55;;;2.78;;
50393;SDS011;36308;46.312;25.288;2023-09-18T13:34:40;3.38;;;2.28;;
50393;SDS011;36308;46.312;25.288;2023-09-18T13:37:05;4.00;;;3.05;;
50393;SDS011;36308;46.312;25.288;2023-09-18T13:39:31;3.97;;;2.90;;
50393;SDS011;36308;46.312;25.288;2023-09-18T13:41:56;3.80;;;2.53;;
50393;SDS011;36308;46.312;25.288;2023-09-18T13:44:22;4.30;;;2.47;;
50393;SDS011;36308;46.312;25.288;2023-09-18T13:46:47;4.45;;;3.65;;
50393;SDS011;36308;46.312;25.288;2023-09-18T13:49:13;5.00;;;2.60;;
50393;SDS011;36308;46.312;25.288;2023-09-18T13:51:38;3.15;;;2.60;;
50393;SDS011;36308;46.312;25.288;2023-09-18T13:54:04;5.35;;;2.60;;
50393;SDS011;36308;46.312;25.288;2023-09-18T13:56:32;3.80;;;2.72;;
50393;SDS011;36308;46.312;25.288;2023-09-18T13:58:58;4.32;;;2.90;;
50393;SDS011;36308;46.312;25.288;2023-09-18T14:01:23;2.92;;;2.40;;
50393;SDS011;36308;46.312;25.288;2023-09-18T14:03:53;4.18;;;2.67;;
50393;SDS011;36308;46.312;25.288;2023-09-18T14:06:19;3.92;;;2.60;;
50393;SDS011;36308;46.312;25.288;2023-09-18T14:08:45;4.43;;;2.65;;
50393;SDS011;36308;46.312;25.288;2023-09-18T14:11:10;4.30;;;2.25;;
50393;SDS011;36308;46.312;25.288;2023-09-18T14:13:37;4.55;;;2.65;;
50393;SDS011;36308;46.312;25.288;2023-09-18T14:16:02;3.15;;;2.53;;
50393;SDS011;36308;46.312;25.288;2023-09-18T14:18:28;5.18;;;2.80;;
50393;SDS011;36308;46.312;25.288;2023-09-18T14:20:54;3.10;;;2.45;;
50393;SDS011;36308;46.312;25.288;2023-09-18T14:23:20;5.07;;;2.75;;
50393;SDS011;36308;46.312;25.288;2023-09-18T14:25:45;4.45;;;2.53;;
50393;SDS011;36308;46.312;25.288;2023-09-18T14:28:11;3.10;;;2.60;;
50393;SDS011;36308;46.312;25.288;2023-09-18T14:30:37;3.15;;;2.50;;
50393;SDS011;36308;46.312;25.288;2023-09-18T14:33:02;4.88;;;2.90;;
50393;SDS011;36308;46.312;25.288;2023-09-18T14:35:28;5.32;;;2.80;;
50393;SDS011;36308;46.312;25.288;2023-09-18T14:37:54;5.13;;;2.80;;
50393;SDS011;36308;46.312;25.288;2023-09-18T14:40:20;4.50;;;2.78;;
50393;SDS011;36308;46.312;25.288;2023-09-18T14:42:46;6.43;;;2.78;;
50393;SDS011;36308;46.312;25.288;2023-09-18T14:45:12;4.22;;;2.88;;
50393;SDS011;36308;46.312;25.288;2023-09-18T14:47:38;6.13;;;3.13;;
50393;SDS011;36308;46.312;25.288;2023-09-18T14:50:04;6.43;;;3.10;;